sensor_id;sensor_type;location;lat;lon;timestamp;temperature;humidity
66373;SHT30;53168;51.146;17.120;2023-05-10T00:00:14;9.44;55.65
66373;SHT30;53168;51.146;17.120;2023-05-10T00:03:08;9.38;55.49
66373;SHT30;53168;51.146;17.120;2023-05-10T00:05:41;9.35;55.90
66373;SHT30;53168;51.146;17.120;2023-05-10T00:08:14;9.30;55.65
66373;SHT30;53168;51.146;17.120;2023-05-10T00:10:48;9.26;56.30
66373;SHT30;53168;51.146;17.120;2023-05-10T00:13:22;9.23;55.78
66373;SHT30;53168;51.146;17.120;2023-05-10T00:15:55;9.17;56.05
66373;SHT30;53168;51.146;17.120;2023-05-10T00:18:28;9.12;56.33
66373;SHT30;53168;51.146;17.120;2023-05-10T00:21:01;9.07;56.81
66373;SHT30;53168;51.146;17.120;2023-05-10T00:23:35;9.02;56.85
66373;SHT30;53168;51.146;17.120;2023-05-10T00:26:08;8.98;57.05
66373;SHT30;53168;51.146;17.120;2023-05-10T00:28:42;8.92;57.14
66373;SHT30;53168;51.146;17.120;2023-05-10T00:31:16;8.89;57.51
66373;SHT30;53168;51.146;17.120;2023-05-10T00:33:49;8.87;57.01
66373;SHT30;53168;51.146;17.120;2023-05-10T00:36:22;8.83;57.25
66373;SHT30;53168;51.146;17.120;2023-05-10T00:38:56;8.79;58.02
66373;SHT30;53168;51.146;17.120;2023-05-10T00:41:29;8.77;58.08
66373;SHT30;53168;51.146;17.120;2023-05-10T00:44:03;8.74;57.63
66373;SHT30;53168;51.146;17.120;2023-05-10T00:46:36;8.72;57.66
66373;SHT30;53168;51.146;17.120;2023-05-10T00:49:10;8.68;57.96
66373;SHT30;53168;51.146;17.120;2023-05-10T00:51:43;8.66;58.30
66373;SHT30;53168;51.146;17.120;2023-05-10T00:54:16;8.63;57.99
66373;SHT30;53168;51.146;17.120;2023-05-10T00:56:50;8.60;58.14
66373;SHT30;53168;51.146;17.120;2023-05-10T00:59:25;8.56;58.15
66373;SHT30;53168;51.146;17.120;2023-05-10T01:02:00;8.52;58.25
66373;SHT30;53168;51.146;17.120;2023-05-10T01:04:35;8.48;58.25
66373;SHT30;53168;51.146;17.120;2023-05-10T01:07:09;8.44;58.14
66373;SHT30;53168;51.146;17.120;2023-05-10T01:09:42;8.39;58.65
66373;SHT30;53168;51.146;17.120;2023-05-10T01:12:17;8.35;58.57
66373;SHT30;53168;51.146;17.120;2023-05-10T01:14:50;8.29;59.04
66373;SHT30;53168;51.146;17.120;2023-05-10T01:17:24;8.28;59.36
66373;SHT30;53168;51.146;17.120;2023-05-10T01:19:58;8.25;59.36
66373;SHT30;53168;51.146;17.120;2023-05-10T01:22:38;8.23;59.85
66373;SHT30;53168;51.146;17.120;2023-05-10T01:25:39;8.23;59.21
66373;SHT30;53168;51.146;17.120;2023-05-10T01:28:58;8.18;59.91
66373;SHT30;53168;51.146;17.120;2023-05-10T01:35:02;8.14;59.59
66373;SHT30;53168;51.146;17.120;2023-05-10T01:37:42;8.09;60.92
66373;SHT30;53168;51.146;17.120;2023-05-10T01:40:29;8.05;60.55
66373;SHT30;53168;51.146;17.120;2023-05-10T01:43:11;8.03;59.73
66373;SHT30;53168;51.146;17.120;2023-05-10T01:45:58;7.99;59.78
66373;SHT30;53168;51.146;17.120;2023-05-10T01:48:40;7.96;59.83
66373;SHT30;53168;51.146;17.120;2023-05-10T01:51:23;7.95;60.12
66373;SHT30;53168;51.146;17.120;2023-05-10T01:54:06;7.97;60.66
66373;SHT30;53168;51.146;17.120;2023-05-10T01:56:43;7.96;60.73
66373;SHT30;53168;51.146;17.120;2023-05-10T01:59:22;7.95;60.59
66373;SHT30;53168;51.146;17.120;2023-05-10T02:02:05;7.92;61.49
66373;SHT30;53168;51.146;17.120;2023-05-10T02:04:40;7.91;61.12
66373;SHT30;53168;51.146;17.120;2023-05-10T02:07:16;7.87;61.40
66373;SHT30;53168;51.146;17.120;2023-05-10T02:09:51;7.86;61.20
66373;SHT30;53168;51.146;17.120;2023-05-10T02:12:27;7.83;61.31
66373;SHT30;53168;51.146;17.120;2023-05-10T02:15:05;7.79;61.60
66373;SHT30;53168;51.146;17.120;2023-05-10T02:17:42;7.77;61.93
66373;SHT30;53168;51.146;17.120;2023-05-10T02:20:18;7.76;62.70
66373;SHT30;53168;51.146;17.120;2023-05-10T02:22:54;7.78;61.98
66373;SHT30;53168;51.146;17.120;2023-05-10T02:25:28;7.78;61.40
66373;SHT30;53168;51.146;17.120;2023-05-10T02:28:03;7.77;61.08
66373;SHT30;53168;51.146;17.120;2023-05-10T02:30:39;7.76;61.46
66373;SHT30;53168;51.146;17.120;2023-05-10T02:33:13;7.75;61.91
66373;SHT30;53168;51.146;17.120;2023-05-10T02:35:49;7.75;61.63
66373;SHT30;53168;51.146;17.120;2023-05-10T02:38:24;7.74;61.91
66373;SHT30;53168;51.146;17.120;2023-05-10T02:41:00;7.73;62.31
66373;SHT30;53168;51.146;17.120;2023-05-10T02:43:37;7.71;62.32
66373;SHT30;53168;51.146;17.120;2023-05-10T02:46:14;7.70;62.21
66373;SHT30;53168;51.146;17.120;2023-05-10T02:48:47;7.67;62.94
66373;SHT30;53168;51.146;17.120;2023-05-10T02:51:20;7.67;62.26
66373;SHT30;53168;51.146;17.120;2023-05-10T02:54:04;7.67;62.66
66373;SHT30;53168;51.146;17.120;2023-05-10T02:56:43;7.68;63.03
66373;SHT30;53168;51.146;17.120;2023-05-10T02:59:27;7.71;62.65
66373;SHT30;53168;51.146;17.120;2023-05-10T03:02:01;7.73;62.79
66373;SHT30;53168;51.146;17.120;2023-05-10T03:04:35;7.73;63.13
66373;SHT30;53168;51.146;17.120;2023-05-10T03:07:08;7.74;63.36
66373;SHT30;53168;51.146;17.120;2023-05-10T03:09:42;7.75;62.96
66373;SHT30;53168;51.146;17.120;2023-05-10T03:12:16;7.74;63.13
66373;SHT30;53168;51.146;17.120;2023-05-10T03:15:03;7.73;62.65
66373;SHT30;53168;51.146;17.120;2023-05-10T03:17:49;7.74;63.28
66373;SHT30;53168;51.146;17.120;2023-05-10T03:20:33;7.76;63.41
66373;SHT30;53168;51.146;17.120;2023-05-10T03:23:17;7.79;63.44
66373;SHT30;53168;51.146;17.120;2023-05-10T03:25:59;7.85;63.68
66373;SHT30;53168;51.146;17.120;2023-05-10T03:28:34;7.89;63.36
66373;SHT30;53168;51.146;17.120;2023-05-10T03:31:08;7.91;63.40
66373;SHT30;53168;51.146;17.120;2023-05-10T03:33:49;7.93;63.22
66373;SHT30;53168;51.146;17.120;2023-05-10T03:36:26;7.96;63.42
66373;SHT30;53168;51.146;17.120;2023-05-10T03:38:59;7.99;63.40
66373;SHT30;53168;51.146;17.120;2023-05-10T03:41:33;8.01;63.13
66373;SHT30;53168;51.146;17.120;2023-05-10T03:44:06;8.02;63.36
66373;SHT30;53168;51.146;17.120;2023-05-10T03:46:39;8.04;63.27
66373;SHT30;53168;51.146;17.120;2023-05-10T03:49:12;8.09;63.08
66373;SHT30;53168;51.146;17.120;2023-05-10T03:51:45;8.14;62.88
66373;SHT30;53168;51.146;17.120;2023-05-10T03:54:22;8.20;62.82
66373;SHT30;53168;51.146;17.120;2023-05-10T03:56:55;8.23;63.00
66373;SHT30;53168;51.146;17.120;2023-05-10T03:59:31;8.25;62.96
66373;SHT30;53168;51.146;17.120;2023-05-10T04:02:04;8.26;63.06
66373;SHT30;53168;51.146;17.120;2023-05-10T04:04:38;8.31;62.90
66373;SHT30;53168;51.146;17.120;2023-05-10T04:07:11;8.33;62.84
66373;SHT30;53168;51.146;17.120;2023-05-10T04:09:45;8.38;62.65
66373;SHT30;53168;51.146;17.120;2023-05-10T04:12:18;8.42;62.72
66373;SHT30;53168;51.146;17.120;2023-05-10T04:14:51;8.47;62.76
66373;SHT30;53168;51.146;17.120;2023-05-10T04:17:24;8.89;62.15
66373;SHT30;53168;51.146;17.120;2023-05-10T04:19:58;10.03;60.14
66373;SHT30;53168;51.146;17.120;2023-05-10T04:22:33;11.13;57.79
66373;SHT30;53168;51.146;17.120;2023-05-10T04:25:06;11.98;55.91
66373;SHT30;53168;51.146;17.120;2023-05-10T04:27:42;12.82;54.86
66373;SHT30;53168;51.146;17.120;2023-05-10T04:30:15;13.35;52.10
66373;SHT30;53168;51.146;17.120;2023-05-10T04:32:49;13.82;51.62
66373;SHT30;53168;51.146;17.120;2023-05-10T04:35:22;14.37;50.35
66373;SHT30;53168;51.146;17.120;2023-05-10T04:37:55;14.82;49.68
66373;SHT30;53168;51.146;17.120;2023-05-10T04:40:29;15.10;46.95
66373;SHT30;53168;51.146;17.120;2023-05-10T04:43:03;15.29;47.47
66373;SHT30;53168;51.146;17.120;2023-05-10T04:45:36;15.64;46.50
66373;SHT30;53168;51.146;17.120;2023-05-10T04:48:09;16.17;46.58
66373;SHT30;53168;51.146;17.120;2023-05-10T04:50:42;16.54;45.06
66373;SHT30;53168;51.146;17.120;2023-05-10T04:53:15;16.80;44.40
66373;SHT30;53168;51.146;17.120;2023-05-10T04:55:48;16.95;43.99
66373;SHT30;53168;51.146;17.120;2023-05-10T04:58:22;17.30;43.20
66373;SHT30;53168;51.146;17.120;2023-05-10T05:00:56;17.60;43.19
66373;SHT30;53168;51.146;17.120;2023-05-10T05:03:37;18.09;42.22
66373;SHT30;53168;51.146;17.120;2023-05-10T05:06:10;18.39;41.62
66373;SHT30;53168;51.146;17.120;2023-05-10T05:08:43;18.44;40.48
66373;SHT30;53168;51.146;17.120;2023-05-10T05:11:18;18.71;40.04
66373;SHT30;53168;51.146;17.120;2023-05-10T05:13:51;18.59;38.55
66373;SHT30;53168;51.146;17.120;2023-05-10T05:16:24;18.87;39.81
66373;SHT30;53168;51.146;17.120;2023-05-10T05:19:00;19.10;38.27
66373;SHT30;53168;51.146;17.120;2023-05-10T05:21:33;19.41;38.83
66373;SHT30;53168;51.146;17.120;2023-05-10T05:24:07;19.85;38.41
66373;SHT30;53168;51.146;17.120;2023-05-10T05:26:41;19.81;36.73
66373;SHT30;53168;51.146;17.120;2023-05-10T05:29:14;19.42;35.88
66373;SHT30;53168;51.146;17.120;2023-05-10T05:31:47;19.65;36.74
66373;SHT30;53168;51.146;17.120;2023-05-10T05:34:23;20.03;36.33
66373;SHT30;53168;51.146;17.120;2023-05-10T05:36:56;20.31;35.60
66373;SHT30;53168;51.146;17.120;2023-05-10T05:39:29;20.30;35.30
66373;SHT30;53168;51.146;17.120;2023-05-10T05:42:02;20.25;34.96
66373;SHT30;53168;51.146;17.120;2023-05-10T05:44:36;20.27;34.59
66373;SHT30;53168;51.146;17.120;2023-05-10T05:47:10;20.35;34.91
66373;SHT30;53168;51.146;17.120;2023-05-10T05:49:43;20.27;34.24
66373;SHT30;53168;51.146;17.120;2023-05-10T05:52:16;19.83;34.16
66373;SHT30;53168;51.146;17.120;2023-05-10T05:54:50;20.04;34.58
66373;SHT30;53168;51.146;17.120;2023-05-10T05:57:23;20.35;34.44
66373;SHT30;53168;51.146;17.120;2023-05-10T05:59:56;20.40;33.80
66373;SHT30;53168;51.146;17.120;2023-05-10T06:02:40;20.45;34.18
66373;SHT30;53168;51.146;17.120;2023-05-10T06:05:14;20.29;33.55
66373;SHT30;53168;51.146;17.120;2023-05-10T06:07:47;20.57;34.53
66373;SHT30;53168;51.146;17.120;2023-05-10T06:10:21;21.40;34.07
66373;SHT30;53168;51.146;17.120;2023-05-10T06:12:55;21.98;33.65
66373;SHT30;53168;51.146;17.120;2023-05-10T06:15:29;22.26;32.43
66373;SHT30;53168;51.146;17.120;2023-05-10T06:18:02;22.61;32.63
66373;SHT30;53168;51.146;17.120;2023-05-10T06:20:36;22.68;31.37
66373;SHT30;53168;51.146;17.120;2023-05-10T06:23:10;22.64;31.50
66373;SHT30;53168;51.146;17.120;2023-05-10T06:25:44;22.42;31.03
66373;SHT30;53168;51.146;17.120;2023-05-10T06:28:17;22.05;31.44
66373;SHT30;53168;51.146;17.120;2023-05-10T06:30:50;22.46;32.00
66373;SHT30;53168;51.146;17.120;2023-05-10T06:33:23;22.96;31.81
66373;SHT30;53168;51.146;17.120;2023-05-10T06:35:56;23.00;30.74
66373;SHT30;53168;51.146;17.120;2023-05-10T06:38:30;22.52;30.74
66373;SHT30;53168;51.146;17.120;2023-05-10T06:41:04;22.17;31.12
66373;SHT30;53168;51.146;17.120;2023-05-10T06:43:38;22.33;31.22
66373;SHT30;53168;51.146;17.120;2023-05-10T06:49:06;22.97;31.15
66373;SHT30;53168;51.146;17.120;2023-05-10T06:51:39;23.09;30.27
66373;SHT30;53168;51.146;17.120;2023-05-10T06:54:12;22.93;30.46
66373;SHT30;53168;51.146;17.120;2023-05-10T06:56:46;23.04;30.72
66373;SHT30;53168;51.146;17.120;2023-05-10T06:59:19;22.88;30.07
66373;SHT30;53168;51.146;17.120;2023-05-10T07:01:53;22.52;30.71
66373;SHT30;53168;51.146;17.120;2023-05-10T07:04:26;22.18;30.72
66373;SHT30;53168;51.146;17.120;2023-05-10T07:06:59;22.10;31.22
66373;SHT30;53168;51.146;17.120;2023-05-10T07:09:33;22.29;31.09
66373;SHT30;53168;51.146;17.120;2023-05-10T07:12:06;22.71;31.14
66373;SHT30;53168;51.146;17.120;2023-05-10T07:14:42;22.90;30.83
66373;SHT30;53168;51.146;17.120;2023-05-10T07:17:15;23.06;30.60
66373;SHT30;53168;51.146;17.120;2023-05-10T07:19:49;23.15;30.82
66373;SHT30;53168;51.146;17.120;2023-05-10T07:22:22;23.13;30.19
66373;SHT30;53168;51.146;17.120;2023-05-10T07:24:55;22.68;30.54
66373;SHT30;53168;51.146;17.120;2023-05-10T07:27:29;22.13;31.44
66373;SHT30;53168;51.146;17.120;2023-05-10T07:30:02;22.63;31.47
66373;SHT30;53168;51.146;17.120;2023-05-10T07:32:37;23.13;30.98
66373;SHT30;53168;51.146;17.120;2023-05-10T07:35:11;22.99;30.84
66373;SHT30;53168;51.146;17.120;2023-05-10T07:37:44;22.71;31.08
66373;SHT30;53168;51.146;17.120;2023-05-10T07:40:18;22.47;31.65
66373;SHT30;53168;51.146;17.120;2023-05-10T07:42:51;22.39;31.78
66373;SHT30;53168;51.146;17.120;2023-05-10T07:45:24;22.59;31.95
66373;SHT30;53168;51.146;17.120;2023-05-10T07:47:58;22.57;31.83
66373;SHT30;53168;51.146;17.120;2023-05-10T07:50:31;22.28;32.55
66373;SHT30;53168;51.146;17.120;2023-05-10T07:53:04;22.60;32.31
66373;SHT30;53168;51.146;17.120;2023-05-10T07:55:37;23.04;32.27
66373;SHT30;53168;51.146;17.120;2023-05-10T07:58:11;23.33;31.71
66373;SHT30;53168;51.146;17.120;2023-05-10T08:00:44;23.64;31.50
66373;SHT30;53168;51.146;17.120;2023-05-10T08:03:18;23.67;31.39
66373;SHT30;53168;51.146;17.120;2023-05-10T08:05:51;24.11;31.48
66373;SHT30;53168;51.146;17.120;2023-05-10T08:08:25;24.39;31.02
66373;SHT30;53168;51.146;17.120;2023-05-10T08:10:58;24.39;31.09
66373;SHT30;53168;51.146;17.120;2023-05-10T08:13:31;24.31;30.74
66373;SHT30;53168;51.146;17.120;2023-05-10T08:16:04;23.88;31.27
66373;SHT30;53168;51.146;17.120;2023-05-10T08:18:38;23.49;31.79
66373;SHT30;53168;51.146;17.120;2023-05-10T08:21:13;23.69;32.16
66373;SHT30;53168;51.146;17.120;2023-05-10T08:23:47;24.10;31.55
66373;SHT30;53168;51.146;17.120;2023-05-10T08:26:20;24.19;31.16
66373;SHT30;53168;51.146;17.120;2023-05-10T08:28:53;24.41;31.22
66373;SHT30;53168;51.146;17.120;2023-05-10T08:31:26;24.50;30.93
66373;SHT30;53168;51.146;17.120;2023-05-10T08:34:00;24.22;30.99
66373;SHT30;53168;51.146;17.120;2023-05-10T08:36:33;23.99;31.35
66373;SHT30;53168;51.146;17.120;2023-05-10T08:39:06;24.22;31.52
66373;SHT30;53168;51.146;17.120;2023-05-10T08:41:57;24.25;31.25
66373;SHT30;53168;51.146;17.120;2023-05-10T08:44:34;24.08;31.45
66373;SHT30;53168;51.146;17.120;2023-05-10T08:47:08;24.21;31.26
66373;SHT30;53168;51.146;17.120;2023-05-10T08:49:44;23.95;31.43
66373;SHT30;53168;51.146;17.120;2023-05-10T08:52:20;24.10;31.58
66373;SHT30;53168;51.146;17.120;2023-05-10T08:54:56;24.32;31.16
66373;SHT30;53168;51.146;17.120;2023-05-10T08:57:29;24.54;31.15
66373;SHT30;53168;51.146;17.120;2023-05-10T09:00:03;24.46;30.88
66373;SHT30;53168;51.146;17.120;2023-05-10T09:02:38;24.65;31.00
66373;SHT30;53168;51.146;17.120;2023-05-10T09:05:14;24.31;30.90
66373;SHT30;53168;51.146;17.120;2023-05-10T09:07:48;24.27;31.02
66373;SHT30;53168;51.146;17.120;2023-05-10T09:10:21;24.58;31.24
66373;SHT30;53168;51.146;17.120;2023-05-10T09:12:57;25.05;30.67
66373;SHT30;53168;51.146;17.120;2023-05-10T09:15:31;24.98;30.33
66373;SHT30;53168;51.146;17.120;2023-05-10T09:18:04;24.79;30.26
66373;SHT30;53168;51.146;17.120;2023-05-10T09:20:38;25.07;30.58
66373;SHT30;53168;51.146;17.120;2023-05-10T09:23:11;25.11;30.20
66373;SHT30;53168;51.146;17.120;2023-05-10T09:25:44;25.16;30.42
66373;SHT30;53168;51.146;17.120;2023-05-10T09:28:18;25.25;29.84
66373;SHT30;53168;51.146;17.120;2023-05-10T09:30:54;24.72;30.32
66373;SHT30;53168;51.146;17.120;2023-05-10T09:33:27;24.58;30.63
66373;SHT30;53168;51.146;17.120;2023-05-10T09:36:13;24.64;30.67
66373;SHT30;53168;51.146;17.120;2023-05-10T09:38:47;24.73;30.65
66373;SHT30;53168;51.146;17.120;2023-05-10T09:41:22;24.89;30.54
66373;SHT30;53168;51.146;17.120;2023-05-10T09:43:56;24.97;30.44
66373;SHT30;53168;51.146;17.120;2023-05-10T09:46:29;25.22;30.27
66373;SHT30;53168;51.146;17.120;2023-05-10T09:49:06;24.79;30.67
66373;SHT30;53168;51.146;17.120;2023-05-10T09:51:44;24.52;31.20
66373;SHT30;53168;51.146;17.120;2023-05-10T09:54:17;24.24;31.51
66373;SHT30;53168;51.146;17.120;2023-05-10T09:56:52;24.33;31.67
66373;SHT30;53168;51.146;17.120;2023-05-10T09:59:25;24.40;31.62
66373;SHT30;53168;51.146;17.120;2023-05-10T10:01:59;24.94;31.18
66373;SHT30;53168;51.146;17.120;2023-05-10T10:04:37;25.27;30.55
66373;SHT30;53168;51.146;17.120;2023-05-10T10:07:12;25.33;30.67
66373;SHT30;53168;51.146;17.120;2023-05-10T10:09:51;25.20;30.57
66373;SHT30;53168;51.146;17.120;2023-05-10T10:12:26;25.16;30.66
66373;SHT30;53168;51.146;17.120;2023-05-10T10:15:00;25.04;30.63
66373;SHT30;53168;51.146;17.120;2023-05-10T10:17:36;24.78;30.98
66373;SHT30;53168;51.146;17.120;2023-05-10T10:20:11;24.43;31.15
66373;SHT30;53168;51.146;17.120;2023-05-10T10:22:46;24.48;30.87
66373;SHT30;53168;51.146;17.120;2023-05-10T10:25:20;24.66;30.78
66373;SHT30;53168;51.146;17.120;2023-05-10T10:27:58;24.86;30.79
66373;SHT30;53168;51.146;17.120;2023-05-10T10:30:47;24.82;30.84
66373;SHT30;53168;51.146;17.120;2023-05-10T10:33:36;24.78;30.60
66373;SHT30;53168;51.146;17.120;2023-05-10T10:36:26;24.24;31.04
66373;SHT30;53168;51.146;17.120;2023-05-10T10:39:04;23.99;31.79
66373;SHT30;53168;51.146;17.120;2023-05-10T10:41:49;23.75;32.41
66373;SHT30;53168;51.146;17.120;2023-05-10T10:44:33;23.12;32.72
66373;SHT30;53168;51.146;17.120;2023-05-10T10:47:10;22.59;33.54
66373;SHT30;53168;51.146;17.120;2023-05-10T10:50:04;22.62;33.19
66373;SHT30;53168;51.146;17.120;2023-05-10T10:52:42;22.63;33.26
66373;SHT30;53168;51.146;17.120;2023-05-10T10:55:18;22.58;33.48
66373;SHT30;53168;51.146;17.120;2023-05-10T10:57:54;22.71;32.94
66373;SHT30;53168;51.146;17.120;2023-05-10T11:00:31;22.61;33.65
66373;SHT30;53168;51.146;17.120;2023-05-10T11:03:06;22.45;33.89
66373;SHT30;53168;51.146;17.120;2023-05-10T11:05:42;22.28;34.32
66373;SHT30;53168;51.146;17.120;2023-05-10T11:08:18;22.25;34.28
66373;SHT30;53168;51.146;17.120;2023-05-10T11:11:05;22.17;35.00
66373;SHT30;53168;51.146;17.120;2023-05-10T11:13:39;21.80;35.15
66373;SHT30;53168;51.146;17.120;2023-05-10T11:16:19;21.85;34.87
66373;SHT30;53168;51.146;17.120;2023-05-10T11:18:58;22.01;35.49
66373;SHT30;53168;51.146;17.120;2023-05-10T11:21:34;22.16;35.52
66373;SHT30;53168;51.146;17.120;2023-05-10T11:24:19;22.09;34.95
66373;SHT30;53168;51.146;17.120;2023-05-10T11:26:57;21.79;35.08
66373;SHT30;53168;51.146;17.120;2023-05-10T11:29:30;21.62;35.38
66373;SHT30;53168;51.146;17.120;2023-05-10T11:32:04;21.53;35.50
66373;SHT30;53168;51.146;17.120;2023-05-10T11:34:38;21.40;35.32
66373;SHT30;53168;51.146;17.120;2023-05-10T11:37:11;21.42;35.69
66373;SHT30;53168;51.146;17.120;2023-05-10T11:39:46;21.58;35.79
66373;SHT30;53168;51.146;17.120;2023-05-10T11:42:19;21.79;35.45
66373;SHT30;53168;51.146;17.120;2023-05-10T11:44:52;22.01;35.36
66373;SHT30;53168;51.146;17.120;2023-05-10T11:47:26;22.16;35.18
66373;SHT30;53168;51.146;17.120;2023-05-10T11:49:59;22.15;35.02
66373;SHT30;53168;51.146;17.120;2023-05-10T11:52:36;22.02;34.84
66373;SHT30;53168;51.146;17.120;2023-05-10T11:55:09;21.86;34.81
66373;SHT30;53168;51.146;17.120;2023-05-10T11:57:43;21.55;35.39
66373;SHT30;53168;51.146;17.120;2023-05-10T12:00:17;21.58;35.64
66373;SHT30;53168;51.146;17.120;2023-05-10T12:02:50;21.36;35.72
66373;SHT30;53168;51.146;17.120;2023-05-10T12:05:24;21.36;36.31
66373;SHT30;53168;51.146;17.120;2023-05-10T12:08:11;21.34;35.70
66373;SHT30;53168;51.146;17.120;2023-05-10T12:10:45;21.20;35.74
66373;SHT30;53168;51.146;17.120;2023-05-10T12:13:19;21.03;35.88
66373;SHT30;53168;51.146;17.120;2023-05-10T12:15:52;21.06;36.17
66373;SHT30;53168;51.146;17.120;2023-05-10T12:18:29;21.18;36.07
66373;SHT30;53168;51.146;17.120;2023-05-10T12:21:04;21.10;35.73
66373;SHT30;53168;51.146;17.120;2023-05-10T12:23:39;21.12;35.80
66373;SHT30;53168;51.146;17.120;2023-05-10T12:26:14;21.20;36.17
66373;SHT30;53168;51.146;17.120;2023-05-10T12:28:48;21.28;36.16
66373;SHT30;53168;51.146;17.120;2023-05-10T12:31:50;21.36;35.83
66373;SHT30;53168;51.146;17.120;2023-05-10T12:34:25;21.35;35.32
66373;SHT30;53168;51.146;17.120;2023-05-10T12:37:03;21.37;35.24
66373;SHT30;53168;51.146;17.120;2023-05-10T12:39:39;21.29;35.01
66373;SHT30;53168;51.146;17.120;2023-05-10T12:42:14;21.23;34.92
66373;SHT30;53168;51.146;17.120;2023-05-10T12:44:48;21.28;35.29
66373;SHT30;53168;51.146;17.120;2023-05-10T12:47:24;21.42;34.45
66373;SHT30;53168;51.146;17.120;2023-05-10T12:49:57;21.48;34.73
66373;SHT30;53168;51.146;17.120;2023-05-10T12:52:31;21.55;34.50
66373;SHT30;53168;51.146;17.120;2023-05-10T12:55:05;21.59;34.29
66373;SHT30;53168;51.146;17.120;2023-05-10T12:57:39;21.75;34.57
66373;SHT30;53168;51.146;17.120;2023-05-10T13:00:13;21.89;34.55
66373;SHT30;53168;51.146;17.120;2023-05-10T13:02:47;22.07;34.38
66373;SHT30;53168;51.146;17.120;2023-05-10T13:05:21;22.21;34.18
66373;SHT30;53168;51.146;17.120;2023-05-10T13:07:54;22.28;33.97
66373;SHT30;53168;51.146;17.120;2023-05-10T13:10:27;22.32;33.79
66373;SHT30;53168;51.146;17.120;2023-05-10T13:13:01;22.20;33.17
66373;SHT30;53168;51.146;17.120;2023-05-10T13:15:34;22.01;33.09
66373;SHT30;53168;51.146;17.120;2023-05-10T13:18:07;22.11;33.37
66373;SHT30;53168;51.146;17.120;2023-05-10T13:20:41;22.12;33.12
66373;SHT30;53168;51.146;17.120;2023-05-10T13:23:14;22.27;33.30
66373;SHT30;53168;51.146;17.120;2023-05-10T13:25:47;22.32;33.28
66373;SHT30;53168;51.146;17.120;2023-05-10T13:28:20;22.29;33.34
66373;SHT30;53168;51.146;17.120;2023-05-10T13:31:03;22.08;33.07
66373;SHT30;53168;51.146;17.120;2023-05-10T13:33:36;22.02;32.71
66373;SHT30;53168;51.146;17.120;2023-05-10T13:36:09;21.97;32.19
66373;SHT30;53168;51.146;17.120;2023-05-10T13:38:43;21.86;32.70
66373;SHT30;53168;51.146;17.120;2023-05-10T13:41:16;21.54;32.22
66373;SHT30;53168;51.146;17.120;2023-05-10T13:43:49;21.36;32.89
66373;SHT30;53168;51.146;17.120;2023-05-10T13:46:22;21.40;32.98
66373;SHT30;53168;51.146;17.120;2023-05-10T13:48:56;21.52;33.20
66373;SHT30;53168;51.146;17.120;2023-05-10T13:51:29;21.59;32.90
66373;SHT30;53168;51.146;17.120;2023-05-10T13:54:03;21.55;32.99
66373;SHT30;53168;51.146;17.120;2023-05-10T13:56:36;21.61;33.11
66373;SHT30;53168;51.146;17.120;2023-05-10T13:59:09;21.58;33.45
66373;SHT30;53168;51.146;17.120;2023-05-10T14:01:43;21.58;33.55
66373;SHT30;53168;51.146;17.120;2023-05-10T14:04:16;21.51;33.44
66373;SHT30;53168;51.146;17.120;2023-05-10T14:06:49;21.44;33.20
66373;SHT30;53168;51.146;17.120;2023-05-10T14:09:22;21.52;33.35
66373;SHT30;53168;51.146;17.120;2023-05-10T14:11:55;21.58;33.03
66373;SHT30;53168;51.146;17.120;2023-05-10T14:14:28;21.63;33.18
66373;SHT30;53168;51.146;17.120;2023-05-10T14:17:02;21.67;32.84
66373;SHT30;53168;51.146;17.120;2023-05-10T14:19:37;21.82;33.28
66373;SHT30;53168;51.146;17.120;2023-05-10T14:22:10;21.93;32.64
66373;SHT30;53168;51.146;17.120;2023-05-10T14:24:43;21.87;32.63
66373;SHT30;53168;51.146;17.120;2023-05-10T14:27:16;21.82;31.82
66373;SHT30;53168;51.146;17.120;2023-05-10T14:29:50;21.66;31.98
66373;SHT30;53168;51.146;17.120;2023-05-10T14:32:23;21.41;32.20
66373;SHT30;53168;51.146;17.120;2023-05-10T14:34:57;21.43;32.61
66373;SHT30;53168;51.146;17.120;2023-05-10T14:37:30;21.42;32.89
66373;SHT30;53168;51.146;17.120;2023-05-10T14:40:05;21.29;33.16
66373;SHT30;53168;51.146;17.120;2023-05-10T14:42:41;21.23;33.68
66373;SHT30;53168;51.146;17.120;2023-05-10T14:45:14;21.23;33.75
66373;SHT30;53168;51.146;17.120;2023-05-10T14:47:48;21.21;33.47
66373;SHT30;53168;51.146;17.120;2023-05-10T14:50:21;21.18;33.52
66373;SHT30;53168;51.146;17.120;2023-05-10T14:53:05;21.19;33.55
66373;SHT30;53168;51.146;17.120;2023-05-10T14:55:38;21.26;33.62
66373;SHT30;53168;51.146;17.120;2023-05-10T14:58:12;21.33;33.56
66373;SHT30;53168;51.146;17.120;2023-05-10T15:00:45;21.46;33.92
66373;SHT30;53168;51.146;17.120;2023-05-10T15:03:19;21.54;33.90
66373;SHT30;53168;51.146;17.120;2023-05-10T15:05:52;21.54;33.90
66373;SHT30;53168;51.146;17.120;2023-05-10T15:08:26;21.52;34.04
66373;SHT30;53168;51.146;17.120;2023-05-10T15:10:59;21.47;33.38
66373;SHT30;53168;51.146;17.120;2023-05-10T15:13:32;21.47;33.34
66373;SHT30;53168;51.146;17.120;2023-05-10T15:16:06;21.45;33.44
66373;SHT30;53168;51.146;17.120;2023-05-10T15:18:39;21.42;33.56
66373;SHT30;53168;51.146;17.120;2023-05-10T15:21:12;21.42;33.88
66373;SHT30;53168;51.146;17.120;2023-05-10T15:23:46;21.39;34.08
66373;SHT30;53168;51.146;17.120;2023-05-10T15:26:19;21.37;34.17
66373;SHT30;53168;51.146;17.120;2023-05-10T15:28:53;21.36;34.05
66373;SHT30;53168;51.146;17.120;2023-05-10T15:31:26;21.19;34.10
66373;SHT30;53168;51.146;17.120;2023-05-10T15:33:59;21.06;34.70
66373;SHT30;53168;51.146;17.120;2023-05-10T15:36:32;20.99;34.68
66373;SHT30;53168;51.146;17.120;2023-05-10T15:39:06;20.88;34.75
66373;SHT30;53168;51.146;17.120;2023-05-10T15:41:39;20.81;34.81
66373;SHT30;53168;51.146;17.120;2023-05-10T15:44:12;20.75;34.85
66373;SHT30;53168;51.146;17.120;2023-05-10T15:46:45;20.71;34.95
66373;SHT30;53168;51.146;17.120;2023-05-10T15:49:19;20.67;35.38
66373;SHT30;53168;51.146;17.120;2023-05-10T15:51:53;20.70;35.40
66373;SHT30;53168;51.146;17.120;2023-05-10T15:54:26;20.71;35.64
66373;SHT30;53168;51.146;17.120;2023-05-10T15:56:59;20.68;35.52
66373;SHT30;53168;51.146;17.120;2023-05-10T15:59:32;20.65;35.38
66373;SHT30;53168;51.146;17.120;2023-05-10T16:02:06;20.62;35.47
66373;SHT30;53168;51.146;17.120;2023-05-10T16:04:40;20.60;35.69
66373;SHT30;53168;51.146;17.120;2023-05-10T16:07:13;20.55;35.55
66373;SHT30;53168;51.146;17.120;2023-05-10T16:09:46;20.54;35.48
66373;SHT30;53168;51.146;17.120;2023-05-10T16:12:20;20.55;35.56
66373;SHT30;53168;51.146;17.120;2023-05-10T16:14:53;20.56;35.66